sensor_id;sensor_type;location;lat;lon;timestamp;pressure;altitude;pressure_sealevel;temperature;humidity
75086;BME280;63663;0.000;0.000;2022-11-15T00:00:03;100270.44;;;12.60;54.89
75086;BME280;63663;0.000;0.000;2022-11-15T00:02:28;100263.44;;;12.54;54.69
75086;BME280;63663;0.000;0.000;2022-11-15T00:04:54;100260.91;;;12.58;54.80
75086;BME280;63663;0.000;0.000;2022-11-15T00:07:19;100266.91;;;12.60;54.58
75086;BME280;63663;0.000;0.000;2022-11-15T00:09:44;100269.63;;;12.60;54.35
75086;BME280;63663;0.000;0.000;2022-11-15T00:12:09;100267.19;;;12.58;54.71
75086;BME280;63663;0.000;0.000;2022-11-15T00:14:34;100263.16;;;12.56;55.01
75086;BME280;63663;0.000;0.000;2022-11-15T00:16:59;100272.38;;;12.60;55.07
75086;BME280;63663;0.000;0.000;2022-11-15T00:19:24;100268.53;;;12.61;55.04
75086;BME280;63663;0.000;0.000;2022-11-15T00:21:50;100267.81;;;12.55;54.69
75086;BME280;63663;0.000;0.000;2022-11-15T00:24:15;100254.66;;;12.57;54.78
75086;BME280;63663;0.000;0.000;2022-11-15T00:26:40;100265.28;;;12.59;55.25
75086;BME280;63663;0.000;0.000;2022-11-15T00:29:05;100259.31;;;12.57;54.96
75086;BME280;63663;0.000;0.000;2022-11-15T00:31:30;100260.41;;;12.56;54.94
75086;BME280;63663;0.000;0.000;2022-11-15T00:33:56;100262.63;;;12.54;55.13
75086;BME280;63663;0.000;0.000;2022-11-15T00:36:21;100260.34;;;12.61;54.89
75086;BME280;63663;0.000;0.000;2022-11-15T00:38:46;100255.13;;;12.64;54.76
75086;BME280;63663;0.000;0.000;2022-11-15T00:41:11;100257.84;;;12.64;55.02
75086;BME280;63663;0.000;0.000;2022-11-15T00:43:36;100260.63;;;12.59;54.96
75086;BME280;63663;0.000;0.000;2022-11-15T00:46:02;100255.44;;;12.58;55.28
75086;BME280;63663;0.000;0.000;2022-11-15T00:48:27;100249.41;;;12.61;55.00
75086;BME280;63663;0.000;0.000;2022-11-15T00:50:52;100247.78;;;12.60;55.21
75086;BME280;63663;0.000;0.000;2022-11-15T00:53:18;100241.16;;;12.66;55.16
75086;BME280;63663;0.000;0.000;2022-11-15T00:55:43;100242.56;;;12.63;55.64
75086;BME280;63663;0.000;0.000;2022-11-15T00:58:08;100241.22;;;12.61;55.88
75086;BME280;63663;0.000;0.000;2022-11-15T01:00:33;100234.66;;;12.62;55.56
75086;BME280;63663;0.000;0.000;2022-11-15T01:02:59;100243.09;;;12.65;55.29
75086;BME280;63663;0.000;0.000;2022-11-15T01:05:24;100241.47;;;12.64;55.52
75086;BME280;63663;0.000;0.000;2022-11-15T01:07:53;100229.72;;;12.64;55.59
75086;BME280;63663;0.000;0.000;2022-11-15T01:10:19;100222.06;;;12.66;55.70
75086;BME280;63663;0.000;0.000;2022-11-15T01:12:44;100217.75;;;12.60;55.85
75086;BME280;63663;0.000;0.000;2022-11-15T01:15:09;100217.47;;;12.61;56.08
75086;BME280;63663;0.000;0.000;2022-11-15T01:17:34;100219.63;;;12.64;55.78
75086;BME280;63663;0.000;0.000;2022-11-15T01:20:00;100214.38;;;12.68;56.31
75086;BME280;63663;0.000;0.000;2022-11-15T01:22:25;100209.50;;;12.65;56.03
75086;BME280;63663;0.000;0.000;2022-11-15T01:24:50;100207.06;;;12.63;56.30
75086;BME280;63663;0.000;0.000;2022-11-15T01:27:15;100202.13;;;12.65;56.31
75086;BME280;63663;0.000;0.000;2022-11-15T01:29:40;100198.06;;;12.63;56.49
75086;BME280;63663;0.000;0.000;2022-11-15T01:32:06;100199.91;;;12.67;56.61
75086;BME280;63663;0.000;0.000;2022-11-15T01:34:31;100190.81;;;12.72;56.31
75086;BME280;63663;0.000;0.000;2022-11-15T01:36:56;100191.72;;;12.67;56.61
75086;BME280;63663;0.000;0.000;2022-11-15T01:39:21;100190.63;;;12.68;56.48
75086;BME280;63663;0.000;0.000;2022-11-15T01:41:46;100196.91;;;12.69;56.56
75086;BME280;63663;0.000;0.000;2022-11-15T01:46:55;100180.56;;;12.64;57.17
75086;BME280;63663;0.000;0.000;2022-11-15T01:49:21;100173.44;;;12.68;56.82
75086;BME280;63663;0.000;0.000;2022-11-15T01:51:47;100170.81;;;12.77;56.75
75086;BME280;63663;0.000;0.000;2022-11-15T01:54:14;100161.97;;;12.66;56.90
75086;BME280;63663;0.000;0.000;2022-11-15T01:56:48;100166.53;;;12.70;57.06
75086;BME280;63663;0.000;0.000;2022-11-15T01:59:14;100166.03;;;12.68;57.17
75086;BME280;63663;0.000;0.000;2022-11-15T02:01:39;100157.03;;;12.68;57.21
75086;BME280;63663;0.000;0.000;2022-11-15T02:06:40;100159.53;;;12.64;57.09
75086;BME280;63663;0.000;0.000;2022-11-15T02:09:05;100162.41;;;12.73;57.08
75086;BME280;63663;0.000;0.000;2022-11-15T02:11:31;100151.72;;;12.77;57.47
75086;BME280;63663;0.000;0.000;2022-11-15T02:13:56;100158.34;;;12.70;57.56
75086;BME280;63663;0.000;0.000;2022-11-15T02:21:54;100164.63;;;12.71;57.68
75086;BME280;63663;0.000;0.000;2022-11-15T02:27:13;100161.06;;;12.70;58.13
75086;BME280;63663;0.000;0.000;2022-11-15T02:32:18;100155.84;;;12.74;58.60
75086;BME280;63663;0.000;0.000;2022-11-15T02:37:31;100159.09;;;12.76;58.93
75086;BME280;63663;0.000;0.000;2022-11-15T02:40:13;100165.66;;;12.75;59.16
75086;BME280;63663;0.000;0.000;2022-11-15T02:42:48;100157.69;;;12.79;59.03
75086;BME280;63663;0.000;0.000;2022-11-15T02:45:19;100160.44;;;12.79;59.36
75086;BME280;63663;0.000;0.000;2022-11-15T02:47:46;100155.16;;;12.82;59.05
75086;BME280;63663;0.000;0.000;2022-11-15T02:50:13;100153.94;;;12.75;59.50
75086;BME280;63663;0.000;0.000;2022-11-15T02:52:40;100154.34;;;12.82;59.42
75086;BME280;63663;0.000;0.000;2022-11-15T02:55:24;100159.09;;;12.76;59.56
75086;BME280;63663;0.000;0.000;2022-11-15T03:00:35;100150.22;;;12.84;59.59
75086;BME280;63663;0.000;0.000;2022-11-15T03:10:26;100150.50;;;12.83;60.30
75086;BME280;63663;0.000;0.000;2022-11-15T03:12:57;100148.06;;;12.81;60.43
75086;BME280;63663;0.000;0.000;2022-11-15T03:15:28;100145.97;;;12.78;60.08
75086;BME280;63663;0.000;0.000;2022-11-15T03:18:02;100141.31;;;12.79;60.06
75086;BME280;63663;0.000;0.000;2022-11-15T03:20:29;100144.34;;;12.77;59.84
75086;BME280;63663;0.000;0.000;2022-11-15T03:22:56;100143.41;;;12.82;60.10
75086;BME280;63663;0.000;0.000;2022-11-15T03:25:24;100141.78;;;12.81;59.93
75086;BME280;63663;0.000;0.000;2022-11-15T03:27:51;100141.44;;;12.87;59.81
75086;BME280;63663;0.000;0.000;2022-11-15T03:30:17;100146.09;;;12.87;59.89
75086;BME280;63663;0.000;0.000;2022-11-15T03:32:47;100141.72;;;12.86;59.96
75086;BME280;63663;0.000;0.000;2022-11-15T03:35:20;100134.41;;;12.81;60.53
75086;BME280;63663;0.000;0.000;2022-11-15T03:37:49;100136.25;;;12.86;60.38
75086;BME280;63663;0.000;0.000;2022-11-15T03:40:16;100135.69;;;12.89;59.98
75086;BME280;63663;0.000;0.000;2022-11-15T03:42:43;100143.28;;;12.92;59.65
75086;BME280;63663;0.000;0.000;2022-11-15T03:45:15;100135.75;;;12.84;60.04
75086;BME280;63663;0.000;0.000;2022-11-15T03:47:52;100142.03;;;12.84;59.90
75086;BME280;63663;0.000;0.000;2022-11-15T03:50:19;100139.59;;;12.83;59.95
75086;BME280;63663;0.000;0.000;2022-11-15T03:52:46;100144.97;;;12.88;59.83
75086;BME280;63663;0.000;0.000;2022-11-15T03:55:13;100146.66;;;12.84;59.79
75086;BME280;63663;0.000;0.000;2022-11-15T03:57:39;100149.63;;;12.87;59.76
75086;BME280;63663;0.000;0.000;2022-11-15T04:00:04;100147.72;;;12.88;60.05
75086;BME280;63663;0.000;0.000;2022-11-15T04:02:30;100141.13;;;12.89;59.89
75086;BME280;63663;0.000;0.000;2022-11-15T04:04:55;100141.13;;;12.89;60.13
75086;BME280;63663;0.000;0.000;2022-11-15T04:07:20;100141.03;;;12.94;59.77
75086;BME280;63663;0.000;0.000;2022-11-15T04:09:45;100138.94;;;12.91;60.03
75086;BME280;63663;0.000;0.000;2022-11-15T04:12:11;100136.78;;;12.88;60.66
75086;BME280;63663;0.000;0.000;2022-11-15T04:14:36;100140.56;;;12.92;60.30
75086;BME280;63663;0.000;0.000;2022-11-15T04:17:01;100138.81;;;12.96;60.56
75086;BME280;63663;0.000;0.000;2022-11-15T04:19:26;100141.25;;;12.97;60.47
75086;BME280;63663;0.000;0.000;2022-11-15T04:21:51;100145.19;;;12.91;60.45
75086;BME280;63663;0.000;0.000;2022-11-15T04:24:16;100143.28;;;12.92;60.46
75086;BME280;63663;0.000;0.000;2022-11-15T04:26:42;100143.06;;;12.88;60.31
75086;BME280;63663;0.000;0.000;2022-11-15T04:29:07;100139.13;;;12.94;60.11
75086;BME280;63663;0.000;0.000;2022-11-15T04:31:32;100144.88;;;12.93;60.48
75086;BME280;63663;0.000;0.000;2022-11-15T04:33:57;100136.09;;;12.96;59.85
75086;BME280;63663;0.000;0.000;2022-11-15T04:36:23;100143.47;;;12.95;59.80
75086;BME280;63663;0.000;0.000;2022-11-15T04:38:48;100140.44;;;12.97;59.51
75086;BME280;63663;0.000;0.000;2022-11-15T04:41:13;100143.94;;;13.02;59.21
75086;BME280;63663;0.000;0.000;2022-11-15T04:43:38;100149.16;;;12.99;59.49
75086;BME280;63663;0.000;0.000;2022-11-15T04:46:03;100134.81;;;13.07;59.17
75086;BME280;63663;0.000;0.000;2022-11-15T04:48:29;100150.19;;;13.03;58.91
75086;BME280;63663;0.000;0.000;2022-11-15T04:50:54;100144.94;;;13.06;58.89
75086;BME280;63663;0.000;0.000;2022-11-15T04:53:19;100145.16;;;13.10;58.60
75086;BME280;63663;0.000;0.000;2022-11-15T04:55:47;100144.56;;;13.13;58.61
75086;BME280;63663;0.000;0.000;2022-11-15T04:58:12;100143.31;;;13.05;58.66
75086;BME280;63663;0.000;0.000;2022-11-15T05:00:37;100138.34;;;13.07;58.87
75086;BME280;63663;0.000;0.000;2022-11-15T05:03:03;100139.97;;;13.09;58.56
75086;BME280;63663;0.000;0.000;2022-11-15T05:05:28;100142.94;;;13.12;58.47
75086;BME280;63663;0.000;0.000;2022-11-15T05:07:53;100145.09;;;13.15;58.57
75086;BME280;63663;0.000;0.000;2022-11-15T05:10:18;100138.66;;;13.06;59.02
75086;BME280;63663;0.000;0.000;2022-11-15T05:12:43;100137.03;;;13.05;59.03
75086;BME280;63663;0.000;0.000;2022-11-15T05:15:09;100138.66;;;13.06;59.09
75086;BME280;63663;0.000;0.000;2022-11-15T05:17:34;100147.16;;;13.04;59.44
75086;BME280;63663;0.000;0.000;2022-11-15T05:19:59;100145.75;;;13.07;59.56
75086;BME280;63663;0.000;0.000;2022-11-15T05:22:24;100148.88;;;13.00;59.97
75086;BME280;63663;0.000;0.000;2022-11-15T05:24:50;100146.03;;;13.05;59.97
75086;BME280;63663;0.000;0.000;2022-11-15T05:27:15;100153.94;;;13.07;60.71
75086;BME280;63663;0.000;0.000;2022-11-15T05:29:40;100146.31;;;13.04;60.83
75086;BME280;63663;0.000;0.000;2022-11-15T05:32:05;100144.84;;;13.12;60.75
75086;BME280;63663;0.000;0.000;2022-11-15T05:34:31;100140.50;;;13.11;60.82
75086;BME280;63663;0.000;0.000;2022-11-15T05:36:56;100143.81;;;13.07;60.71
75086;BME280;63663;0.000;0.000;2022-11-15T05:39:22;100145.97;;;13.11;60.81
75086;BME280;63663;0.000;0.000;2022-11-15T05:41:51;100144.78;;;13.17;60.49
75086;BME280;63663;0.000;0.000;2022-11-15T05:44:18;100142.63;;;13.14;60.86
75086;BME280;63663;0.000;0.000;2022-11-15T05:46:44;100145.66;;;13.12;60.63
75086;BME280;63663;0.000;0.000;2022-11-15T05:49:10;100146.41;;;13.18;60.90
75086;BME280;63663;0.000;0.000;2022-11-15T05:51:36;100145.00;;;13.20;60.77
75086;BME280;63663;0.000;0.000;2022-11-15T05:54:01;100140.41;;;13.16;60.92
75086;BME280;63663;0.000;0.000;2022-11-15T05:56:27;100139.66;;;13.15;60.60
75086;BME280;63663;0.000;0.000;2022-11-15T05:58:53;100138.81;;;13.15;61.01
75086;BME280;63663;0.000;0.000;2022-11-15T06:01:20;100141.75;;;13.18;60.61
75086;BME280;63663;0.000;0.000;2022-11-15T06:03:45;100132.16;;;13.21;60.46
75086;BME280;63663;0.000;0.000;2022-11-15T06:06:10;100137.09;;;13.19;60.40
75086;BME280;63663;0.000;0.000;2022-11-15T06:08:35;100130.31;;;13.16;60.25
75086;BME280;63663;0.000;0.000;2022-11-15T06:11:04;100137.31;;;13.22;60.32
75086;BME280;63663;0.000;0.000;2022-11-15T06:13:29;100133.63;;;13.13;60.30
75086;BME280;63663;0.000;0.000;2022-11-15T06:15:55;100129.19;;;13.17;60.25
75086;BME280;63663;0.000;0.000;2022-11-15T06:18:20;100133.66;;;13.27;60.23
75086;BME280;63663;0.000;0.000;2022-11-15T06:20:45;100129.63;;;13.24;60.16
75086;BME280;63663;0.000;0.000;2022-11-15T06:23:10;100131.03;;;13.22;60.47
75086;BME280;63663;0.000;0.000;2022-11-15T06:25:36;100129.63;;;13.24;60.12
75086;BME280;63663;0.000;0.000;2022-11-15T06:28:01;100131.84;;;13.22;60.00
75086;BME280;63663;0.000;0.000;2022-11-15T06:30:26;100134.88;;;13.21;60.25
75086;BME280;63663;0.000;0.000;2022-11-15T06:32:57;100128.59;;;13.20;60.15
75086;BME280;63663;0.000;0.000;2022-11-15T06:35:23;100132.88;;;13.26;59.99
75086;BME280;63663;0.000;0.000;2022-11-15T06:37:48;100131.84;;;13.22;60.39
75086;BME280;63663;0.000;0.000;2022-11-15T06:40:13;100131.75;;;13.27;60.15
75086;BME280;63663;0.000;0.000;2022-11-15T06:42:38;100132.16;;;13.21;60.57
75086;BME280;63663;0.000;0.000;2022-11-15T06:45:03;100136.41;;;13.27;60.33
75086;BME280;63663;0.000;0.000;2022-11-15T06:47:29;100140.56;;;13.24;59.89
75086;BME280;63663;0.000;0.000;2022-11-15T06:49:54;100140.16;;;13.31;59.90
75086;BME280;63663;0.000;0.000;2022-11-15T06:52:19;100146.84;;;13.25;60.36
75086;BME280;63663;0.000;0.000;2022-11-15T06:54:44;100138.03;;;13.28;59.65
75086;BME280;63663;0.000;0.000;2022-11-15T06:57:10;100142.09;;;13.30;59.83
75086;BME280;63663;0.000;0.000;2022-11-15T06:59:35;100146.44;;;13.31;59.76
75086;BME280;63663;0.000;0.000;2022-11-15T07:02:00;100145.03;;;13.34;59.90
75086;BME280;63663;0.000;0.000;2022-11-15T07:04:25;100146.66;;;13.35;59.75
75086;BME280;63663;0.000;0.000;2022-11-15T07:06:50;100148.47;;;13.39;59.67
75086;BME280;63663;0.000;0.000;2022-11-15T07:09:15;100147.78;;;13.34;59.89
75086;BME280;63663;0.000;0.000;2022-11-15T07:11:41;100147.47;;;13.35;59.50
75086;BME280;63663;0.000;0.000;2022-11-15T07:14:06;100158.28;;;13.40;59.31
75086;BME280;63663;0.000;0.000;2022-11-15T07:16:31;100152.84;;;13.40;58.91
75086;BME280;63663;0.000;0.000;2022-11-15T07:18:56;100149.00;;;13.41;59.03
75086;BME280;63663;0.000;0.000;2022-11-15T07:21:21;100159.63;;;13.43;59.08
75086;BME280;63663;0.000;0.000;2022-11-15T07:23:47;100147.88;;;13.43;59.03
75086;BME280;63663;0.000;0.000;2022-11-15T07:26:12;100155.56;;;13.40;59.12
75086;BME280;63663;0.000;0.000;2022-11-15T07:28:37;100157.72;;;13.44;58.92
75086;BME280;63663;0.000;0.000;2022-11-15T07:31:07;100157.19;;;13.41;59.34
75086;BME280;63663;0.000;0.000;2022-11-15T07:33:32;100156.66;;;13.39;59.33
75086;BME280;63663;0.000;0.000;2022-11-15T07:35:58;100161.25;;;13.44;59.06
75086;BME280;63663;0.000;0.000;2022-11-15T07:38:24;100161.31;;;13.39;59.58
75086;BME280;63663;0.000;0.000;2022-11-15T07:40:55;100164.28;;;13.43;59.70
75086;BME280;63663;0.000;0.000;2022-11-15T07:43:21;100173.00;;;13.45;59.14
75086;BME280;63663;0.000;0.000;2022-11-15T07:45:46;100176.03;;;13.43;59.10
75086;BME280;63663;0.000;0.000;2022-11-15T07:48:11;100176.53;;;13.45;59.34
75086;BME280;63663;0.000;0.000;2022-11-15T07:50:36;100170.56;;;13.43;59.29
75086;BME280;63663;0.000;0.000;2022-11-15T07:53:02;100177.34;;;13.46;59.17
75086;BME280;63663;0.000;0.000;2022-11-15T07:55:27;100176.75;;;13.49;59.07
75086;BME280;63663;0.000;0.000;2022-11-15T07:57:53;100181.41;;;13.48;59.48
75086;BME280;63663;0.000;0.000;2022-11-15T08:00:18;100181.13;;;13.50;59.28
75086;BME280;63663;0.000;0.000;2022-11-15T08:02:43;100183.53;;;13.51;59.11
75086;BME280;63663;0.000;0.000;2022-11-15T08:05:08;100183.34;;;13.48;59.24
75086;BME280;63663;0.000;0.000;2022-11-15T08:07:34;100178.38;;;13.50;59.14
75086;BME280;63663;0.000;0.000;2022-11-15T08:09:59;100177.88;;;13.48;59.41
75086;BME280;63663;0.000;0.000;2022-11-15T08:12:24;100175.66;;;13.50;59.29
75086;BME280;63663;0.000;0.000;2022-11-15T08:14:49;100169.38;;;13.49;59.26
75086;BME280;63663;0.000;0.000;2022-11-15T08:17:14;100168.22;;;13.50;58.92
75086;BME280;63663;0.000;0.000;2022-11-15T08:19:40;100163.56;;;13.51;59.20
75086;BME280;63663;0.000;0.000;2022-11-15T08:22:05;100168.56;;;13.49;59.65
75086;BME280;63663;0.000;0.000;2022-11-15T08:24:30;100158.91;;;13.51;59.31
75086;BME280;63663;0.000;0.000;2022-11-15T08:26:55;100160.66;;;13.47;59.51
75086;BME280;63663;0.000;0.000;2022-11-15T08:29:20;100159.94;;;13.55;59.26
75086;BME280;63663;0.000;0.000;2022-11-15T08:31:45;100155.00;;;13.57;59.12
75086;BME280;63663;0.000;0.000;2022-11-15T08:34:11;100154.41;;;13.60;59.26
75086;BME280;63663;0.000;0.000;2022-11-15T08:36:36;100162.75;;;13.50;59.57
75086;BME280;63663;0.000;0.000;2022-11-15T08:39:01;100158.63;;;13.53;59.70
75086;BME280;63663;0.000;0.000;2022-11-15T08:41:28;100161.88;;;13.55;59.74
75086;BME280;63663;0.000;0.000;2022-11-15T08:43:54;100158.31;;;13.54;59.85
75086;BME280;63663;0.000;0.000;2022-11-15T08:46:20;100160.16;;;13.59;59.55
75086;BME280;63663;0.000;0.000;2022-11-15T08:48:45;100158.25;;;13.59;59.67
75086;BME280;63663;0.000;0.000;2022-11-15T08:51:10;100166.44;;;13.59;59.89
75086;BME280;63663;0.000;0.000;2022-11-15T08:53:35;100165.00;;;13.62;59.91
75086;BME280;63663;0.000;0.000;2022-11-15T08:56:01;100160.34;;;13.62;59.98
75086;BME280;63663;0.000;0.000;2022-11-15T08:58:26;100159.25;;;13.63;60.00
75086;BME280;63663;0.000;0.000;2022-11-15T09:00:51;100160.28;;;13.67;60.42
75086;BME280;63663;0.000;0.000;2022-11-15T09:03:16;100161.91;;;13.68;60.07
75086;BME280;63663;0.000;0.000;2022-11-15T09:05:41;100154.09;;;13.75;59.85
75086;BME280;63663;0.000;0.000;2022-11-15T09:08:07;100152.97;;;13.76;59.78
75086;BME280;63663;0.000;0.000;2022-11-15T09:10:32;100153.09;;;13.71;60.06
75086;BME280;63663;0.000;0.000;2022-11-15T09:12:57;100158.75;;;13.75;59.66
75086;BME280;63663;0.000;0.000;2022-11-15T09:15:23;100158.97;;;13.78;59.46
75086;BME280;63663;0.000;0.000;2022-11-15T09:17:48;100144.78;;;13.76;59.28
75086;BME280;63663;0.000;0.000;2022-11-15T09:20:13;100161.47;;;13.75;59.71
75086;BME280;63663;0.000;0.000;2022-11-15T09:22:39;100154.91;;;13.76;59.31
75086;BME280;63663;0.000;0.000;2022-11-15T09:25:04;100164.00;;;13.85;59.00
75086;BME280;63663;0.000;0.000;2022-11-15T09:27:29;100153.06;;;13.85;59.11
75086;BME280;63663;0.000;0.000;2022-11-15T09:29:55;100153.56;;;13.87;59.21
75086;BME280;63663;0.000;0.000;2022-11-15T09:32:20;100159.88;;;13.88;59.16
75086;BME280;63663;0.000;0.000;2022-11-15T09:34:45;100163.19;;;13.85;59.49
75086;BME280;63663;0.000;0.000;2022-11-15T09:37:10;100164.53;;;13.87;59.75
75086;BME280;63663;0.000;0.000;2022-11-15T09:39:36;100164.53;;;13.87;59.79
75086;BME280;63663;0.000;0.000;2022-11-15T09:47:26;100161.28;;;13.85;60.23
75086;BME280;63663;0.000;0.000;2022-11-15T09:49:55;100157.63;;;13.90;59.84
75086;BME280;63663;0.000;0.000;2022-11-15T09:52:22;100162.50;;;13.93;59.66
75086;BME280;63663;0.000;0.000;2022-11-15T09:54:48;100160.88;;;13.92;59.79
75086;BME280;63663;0.000;0.000;2022-11-15T10:02:33;100155.81;;;13.99;59.60
75086;BME280;63663;0.000;0.000;2022-11-15T10:05:01;100148.22;;;13.96;59.77
75086;BME280;63663;0.000;0.000;2022-11-15T10:09:53;100152.88;;;13.95;60.04
75086;BME280;63663;0.000;0.000;2022-11-15T10:12:19;100148.63;;;14.03;59.28
75086;BME280;63663;0.000;0.000;2022-11-15T10:14:45;100147.00;;;14.02;59.36
75086;BME280;63663;0.000;0.000;2022-11-15T10:17:18;100142.84;;;14.04;59.35
75086;BME280;63663;0.000;0.000;2022-11-15T10:19:49;100146.69;;;14.03;59.53
75086;BME280;63663;0.000;0.000;2022-11-15T10:22:21;100136.25;;;14.05;59.10
75086;BME280;63663;0.000;0.000;2022-11-15T10:24:49;100132.88;;;14.08;58.76
75086;BME280;63663;0.000;0.000;2022-11-15T10:27:16;100133.00;;;14.03;59.10
75086;BME280;63663;0.000;0.000;2022-11-15T10:29:45;100127.53;;;14.03;59.29
75086;BME280;63663;0.000;0.000;2022-11-15T10:32:12;100113.13;;;14.11;59.11
75086;BME280;63663;0.000;0.000;2022-11-15T10:34:37;100119.41;;;14.12;58.88
75086;BME280;63663;0.000;0.000;2022-11-15T10:37:02;100111.81;;;14.09;59.19
75086;BME280;63663;0.000;0.000;2022-11-15T10:39:28;100096.09;;;14.14;58.65
75086;BME280;63663;0.000;0.000;2022-11-15T10:41:53;100098.31;;;14.12;59.08
75086;BME280;63663;0.000;0.000;2022-11-15T10:46:44;100085.75;;;14.11;58.86
75086;BME280;63663;0.000;0.000;2022-11-15T10:49:14;100078.66;;;14.10;58.99
75086;BME280;63663;0.000;0.000;2022-11-15T10:51:41;100079.66;;;14.14;58.49
75086;BME280;63663;0.000;0.000;2022-11-15T10:54:07;100081.81;;;14.18;58.69
75086;BME280;63663;0.000;0.000;2022-11-15T10:56:35;100077.00;;;14.23;58.24
75086;BME280;63663;0.000;0.000;2022-11-15T10:59:00;100066.50;;;14.17;58.51
75086;BME280;63663;0.000;0.000;2022-11-15T11:01:26;100063.66;;;14.08;58.77
75086;BME280;63663;0.000;0.000;2022-11-15T11:03:59;100069.13;;;14.08;58.58
75086;BME280;63663;0.000;0.000;2022-11-15T11:06:25;100070.84;;;14.18;58.55
75086;BME280;63663;0.000;0.000;2022-11-15T11:08:57;100062.31;;;14.19;58.28
75086;BME280;63663;0.000;0.000;2022-11-15T11:11:23;100054.28;;;14.23;58.27
75086;BME280;63663;0.000;0.000;2022-11-15T11:13:48;100056.72;;;14.24;57.96
75086;BME280;63663;0.000;0.000;2022-11-15T11:18:44;100050.56;;;14.19;57.98
75086;BME280;63663;0.000;0.000;2022-11-15T11:21:17;100050.06;;;14.17;58.34
75086;BME280;63663;0.000;0.000;2022-11-15T11:23:54;100049.06;;;14.12;58.28
75086;BME280;63663;0.000;0.000;2022-11-15T11:34:36;100044.97;;;14.24;58.14
75086;BME280;63663;0.000;0.000;2022-11-15T11:37:19;100038.69;;;14.23;57.82
75086;BME280;63663;0.000;0.000;2022-11-15T11:47:39;100021.94;;;14.25;57.86
75086;BME280;63663;0.000;0.000;2022-11-15T11:50:13;100036.16;;;14.27;57.81
75086;BME280;63663;0.000;0.000;2022-11-15T11:53:02;100022.97;;;14.29;57.91
75086;BME280;63663;0.000;0.000;2022-11-15T12:00:34;100009.22;;;14.42;58.02
75086;BME280;63663;0.000;0.000;2022-11-15T12:07:53;99994.75;;;14.42;57.59
75086;BME280;63663;0.000;0.000;2022-11-15T12:10:23;99991.50;;;14.40;57.78
75086;BME280;63663;0.000;0.000;2022-11-15T12:15:35;99975.97;;;14.35;58.38
75086;BME280;63663;0.000;0.000;2022-11-15T12:18:02;99975.34;;;14.38;58.19
75086;BME280;63663;0.000;0.000;2022-11-15T12:20:28;99979.91;;;14.43;58.21
75086;BME280;63663;0.000;0.000;2022-11-15T12:22:58;99978.78;;;14.44;57.97
75086;BME280;63663;0.000;0.000;2022-11-15T12:28:01;99976.25;;;14.47;58.09
75086;BME280;63663;0.000;0.000;2022-11-15T12:30:38;99973.00;;;14.45;58.41
75086;BME280;63663;0.000;0.000;2022-11-15T12:33:13;99973.00;;;14.45;57.93
75086;BME280;63663;0.000;0.000;2022-11-15T12:35:57;99965.47;;;14.51;57.78
75086;BME280;63663;0.000;0.000;2022-11-15T12:41:17;99957.88;;;14.48;58.00
75086;BME280;63663;0.000;0.000;2022-11-15T12:43:43;99950.97;;;14.51;57.98
75086;BME280;63663;0.000;0.000;2022-11-15T12:49:00;99959.34;;;14.54;58.10
75086;BME280;63663;0.000;0.000;2022-11-15T12:57:17;99963.41;;;14.57;58.21
75086;BME280;63663;0.000;0.000;2022-11-15T13:00:36;99964.22;;;14.57;58.01
75086;BME280;63663;0.000;0.000;2022-11-15T13:02:26;99962.59;;;14.56;58.27
75086;BME280;63663;0.000;0.000;2022-11-15T13:04:54;99946.66;;;14.58;58.58
75086;BME280;63663;0.000;0.000;2022-11-15T13:09:59;99934.81;;;14.71;58.63
75086;BME280;63663;0.000;0.000;2022-11-15T13:14:54;99931.38;;;14.66;59.07
75086;BME280;63663;0.000;0.000;2022-11-15T13:22:23;99929.84;;;14.73;58.79
75086;BME280;63663;0.000;0.000;2022-11-15T13:24:48;99917.56;;;14.71;59.03
75086;BME280;63663;0.000;0.000;2022-11-15T13:27:17;99915.31;;;14.73;58.92
75086;BME280;63663;0.000;0.000;2022-11-15T13:29:43;99918.25;;;14.76;59.16
75086;BME280;63663;0.000;0.000;2022-11-15T13:32:13;99914.84;;;14.79;58.86
75086;BME280;63663;0.000;0.000;2022-11-15T13:34:38;99915.97;;;14.78;59.00
75086;BME280;63663;0.000;0.000;2022-11-15T13:37:11;99916.78;;;14.79;59.48
75086;BME280;63663;0.000;0.000;2022-11-15T13:39:37;99917.78;;;14.83;59.17
75086;BME280;63663;0.000;0.000;2022-11-15T13:42:03;99907.94;;;14.82;59.49
75086;BME280;63663;0.000;0.000;2022-11-15T13:44:29;99911.81;;;14.81;59.51
75086;BME280;63663;0.000;0.000;2022-11-15T13:47:05;99910.56;;;14.87;58.85
75086;BME280;63663;0.000;0.000;2022-11-15T13:49:31;99901.84;;;14.85;59.05
75086;BME280;63663;0.000;0.000;2022-11-15T13:51:56;99895.06;;;14.82;59.59
75086;BME280;63663;0.000;0.000;2022-11-15T13:56:53;99892.66;;;14.90;59.74
75086;BME280;63663;0.000;0.000;2022-11-15T14:01:44;99889.47;;;14.96;58.88
75086;BME280;63663;0.000;0.000;2022-11-15T14:04:11;99887.84;;;14.95;59.43
75086;BME280;63663;0.000;0.000;2022-11-15T14:06:43;99879.31;;;14.97;59.01
75086;BME280;63663;0.000;0.000;2022-11-15T14:11:34;99877.88;;;14.99;58.62
75086;BME280;63663;0.000;0.000;2022-11-15T14:16:37;99885.13;;;15.04;58.44
75086;BME280;63663;0.000;0.000;2022-11-15T14:19:03;99887.88;;;15.12;58.32
75086;BME280;63663;0.000;0.000;2022-11-15T14:21:29;99882.25;;;15.09;58.11
75086;BME280;63663;0.000;0.000;2022-11-15T14:24:13;99874.47;;;15.02;58.46
75086;BME280;63663;0.000;0.000;2022-11-15T14:26:38;99877.22;;;15.02;58.45
75086;BME280;63663;0.000;0.000;2022-11-15T14:31:47;99868.38;;;15.14;57.92
75086;BME280;63663;0.000;0.000;2022-11-15T14:34:12;99868.69;;;15.12;57.97
75086;BME280;63663;0.000;0.000;2022-11-15T14:36:37;99868.06;;;15.15;57.84
75086;BME280;63663;0.000;0.000;2022-11-15T14:39:03;99872.91;;;15.18;57.48
75086;BME280;63663;0.000;0.000;2022-11-15T14:41:28;99867.25;;;15.15;57.42
75086;BME280;63663;0.000;0.000;2022-11-15T14:43:53;99865.63;;;15.14;57.72
75086;BME280;63663;0.000;0.000;2022-11-15T14:46:18;99868.22;;;15.19;57.60
75086;BME280;63663;0.000;0.000;2022-11-15T14:48:43;99870.47;;;15.17;57.37
75086;BME280;63663;0.000;0.000;2022-11-15T14:51:10;99872.09;;;15.18;57.54